Terminal Aerodrome Forecast
Issued by NWS Portland, ME

Home | Current Version | Previous Version | Text Only | Print | Product List | Glossary On
Versions: 1 2 3 4 5 6 7 8 9 10 11 12 13 14 15 16 17 18 19 20
000
FTUS41 KGYX 012300
TAFPWM
TAF
KPWM 012320Z 0200/0224 19008KT P6SM SCT040 SCT100 SCT250
      TEMPO 0206/0210 5SM BR BKN025
     FM021200 18007KT P6SM BKN025
      TEMPO 0216/0220 4SM -SHRA BR BKN040=

USA.gov is the U.S. government's official web portal to all federal, state and local government web resources and services.